sensor_id;sensor_type;location;lat;lon;timestamp;temperature;humidity
11536;DHT22;5824;49.336;8.652;2023-07-31T00:00:59;19.20;1.00
11536;DHT22;5824;49.336;8.652;2023-07-31T00:03:24;19.20;1.00
11536;DHT22;5824;49.336;8.652;2023-07-31T00:05:50;19.20;1.00
11536;DHT22;5824;49.336;8.652;2023-07-31T00:08:16;19.20;1.00
11536;DHT22;5824;49.336;8.652;2023-07-31T00:10:41;19.20;1.00
11536;DHT22;5824;49.336;8.652;2023-07-31T00:13:07;19.20;1.00
11536;DHT22;5824;49.336;8.652;2023-07-31T00:15:32;19.10;1.00
11536;DHT22;5824;49.336;8.652;2023-07-31T00:17:58;19.10;1.00
11536;DHT22;5824;49.336;8.652;2023-07-31T00:20:23;19.10;1.00
11536;DHT22;5824;49.336;8.652;2023-07-31T00:22:48;19.20;1.00
11536;DHT22;5824;49.336;8.652;2023-07-31T00:25:14;19.20;1.00
11536;DHT22;5824;49.336;8.652;2023-07-31T00:27:40;19.20;1.00
11536;DHT22;5824;49.336;8.652;2023-07-31T00:30:10;19.10;1.00
11536;DHT22;5824;49.336;8.652;2023-07-31T00:32:35;19.10;1.00
11536;DHT22;5824;49.336;8.652;2023-07-31T00:35:01;19.10;1.00
11536;DHT22;5824;49.336;8.652;2023-07-31T00:37:27;19.00;1.00
11536;DHT22;5824;49.336;8.652;2023-07-31T00:39:52;19.10;1.00
11536;DHT22;5824;49.336;8.652;2023-07-31T00:42:18;19.10;1.00
11536;DHT22;5824;49.336;8.652;2023-07-31T00:44:43;19.10;1.00
11536;DHT22;5824;49.336;8.652;2023-07-31T00:47:09;19.10;1.00
11536;DHT22;5824;49.336;8.652;2023-07-31T00:49:34;19.10;1.00
11536;DHT22;5824;49.336;8.652;2023-07-31T00:52:00;19.00;1.00
11536;DHT22;5824;49.336;8.652;2023-07-31T00:54:27;19.00;1.00
11536;DHT22;5824;49.336;8.652;2023-07-31T00:56:54;19.10;1.00
11536;DHT22;5824;49.336;8.652;2023-07-31T00:59:20;19.10;1.00
11536;DHT22;5824;49.336;8.652;2023-07-31T01:01:46;19.10;1.00
11536;DHT22;5824;49.336;8.652;2023-07-31T01:04:12;19.10;1.00
11536;DHT22;5824;49.336;8.652;2023-07-31T01:09:37;19.10;1.00
11536;DHT22;5824;49.336;8.652;2023-07-31T01:12:07;19.10;1.00
11536;DHT22;5824;49.336;8.652;2023-07-31T01:14:33;19.10;1.00
11536;DHT22;5824;49.336;8.652;2023-07-31T01:16:58;19.10;1.00
11536;DHT22;5824;49.336;8.652;2023-07-31T01:19:25;19.20;1.00
11536;DHT22;5824;49.336;8.652;2023-07-31T01:22:11;19.10;1.00
11536;DHT22;5824;49.336;8.652;2023-07-31T01:24:59;19.20;1.00
11536;DHT22;5824;49.336;8.652;2023-07-31T01:27:34;19.20;1.00
11536;DHT22;5824;49.336;8.652;2023-07-31T01:30:10;19.20;1.00
11536;DHT22;5824;49.336;8.652;2023-07-31T01:32:40;19.30;1.00
11536;DHT22;5824;49.336;8.652;2023-07-31T01:35:06;19.30;1.00
11536;DHT22;5824;49.336;8.652;2023-07-31T01:37:32;19.30;1.00
11536;DHT22;5824;49.336;8.652;2023-07-31T01:39:58;19.30;1.00
11536;DHT22;5824;49.336;8.652;2023-07-31T01:42:23;19.30;1.00
11536;DHT22;5824;49.336;8.652;2023-07-31T01:44:49;19.30;1.00
11536;DHT22;5824;49.336;8.652;2023-07-31T01:47:14;19.30;1.00
11536;DHT22;5824;49.336;8.652;2023-07-31T01:49:40;19.30;1.00
11536;DHT22;5824;49.336;8.652;2023-07-31T01:52:06;19.30;1.00
11536;DHT22;5824;49.336;8.652;2023-07-31T01:54:31;19.30;1.00
11536;DHT22;5824;49.336;8.652;2023-07-31T01:56:57;19.30;1.00
11536;DHT22;5824;49.336;8.652;2023-07-31T01:59:22;19.30;1.00
11536;DHT22;5824;49.336;8.652;2023-07-31T02:01:48;19.30;1.00
11536;DHT22;5824;49.336;8.652;2023-07-31T02:04:13;19.30;1.00
11536;DHT22;5824;49.336;8.652;2023-07-31T02:06:39;19.40;1.00
11536;DHT22;5824;49.336;8.652;2023-07-31T02:09:04;19.30;1.00
11536;DHT22;5824;49.336;8.652;2023-07-31T02:11:30;19.30;1.00
11536;DHT22;5824;49.336;8.652;2023-07-31T02:13:55;19.30;1.00
11536;DHT22;5824;49.336;8.652;2023-07-31T02:16:21;19.30;1.00
11536;DHT22;5824;49.336;8.652;2023-07-31T02:18:46;19.30;1.00
11536;DHT22;5824;49.336;8.652;2023-07-31T02:21:12;19.30;1.00
11536;DHT22;5824;49.336;8.652;2023-07-31T02:23:37;19.30;1.00
11536;DHT22;5824;49.336;8.652;2023-07-31T02:26:03;19.20;1.00
11536;DHT22;5824;49.336;8.652;2023-07-31T02:28:29;19.20;1.00
11536;DHT22;5824;49.336;8.652;2023-07-31T02:30:54;19.10;1.00
11536;DHT22;5824;49.336;8.652;2023-07-31T02:33:20;19.20;1.00
11536;DHT22;5824;49.336;8.652;2023-07-31T02:35:46;19.10;1.00
11536;DHT22;5824;49.336;8.652;2023-07-31T02:38:11;19.10;1.00
11536;DHT22;5824;49.336;8.652;2023-07-31T02:40:37;19.10;1.00
11536;DHT22;5824;49.336;8.652;2023-07-31T02:43:02;19.70;1.00
11536;DHT22;5824;49.336;8.652;2023-07-31T02:45:28;19.10;1.00
11536;DHT22;5824;49.336;8.652;2023-07-31T02:47:53;19.10;1.00
11536;DHT22;5824;49.336;8.652;2023-07-31T02:50:19;19.10;1.00
11536;DHT22;5824;49.336;8.652;2023-07-31T02:52:44;19.00;1.00
11536;DHT22;5824;49.336;8.652;2023-07-31T02:55:10;19.00;1.00
11536;DHT22;5824;49.336;8.652;2023-07-31T02:57:35;19.00;1.00
11536;DHT22;5824;49.336;8.652;2023-07-31T03:00:01;19.00;1.00
11536;DHT22;5824;49.336;8.652;2023-07-31T03:02:26;19.00;1.00
11536;DHT22;5824;49.336;8.652;2023-07-31T03:04:52;19.00;1.00
11536;DHT22;5824;49.336;8.652;2023-07-31T03:07:17;18.80;1.00
11536;DHT22;5824;49.336;8.652;2023-07-31T03:09:43;18.80;1.00
11536;DHT22;5824;49.336;8.652;2023-07-31T03:12:08;18.80;1.00
11536;DHT22;5824;49.336;8.652;2023-07-31T03:14:34;18.80;1.00
11536;DHT22;5824;49.336;8.652;2023-07-31T03:17:00;18.70;1.00
11536;DHT22;5824;49.336;8.652;2023-07-31T03:19:26;18.60;1.00
11536;DHT22;5824;49.336;8.652;2023-07-31T03:21:51;18.50;1.00
11536;DHT22;5824;49.336;8.652;2023-07-31T03:24:17;18.50;1.00
11536;DHT22;5824;49.336;8.652;2023-07-31T03:26:42;18.50;1.00
11536;DHT22;5824;49.336;8.652;2023-07-31T03:29:08;18.40;1.00
11536;DHT22;5824;49.336;8.652;2023-07-31T03:31:34;18.40;1.00
11536;DHT22;5824;49.336;8.652;2023-07-31T03:33:59;18.40;1.00
11536;DHT22;5824;49.336;8.652;2023-07-31T03:36:25;18.40;1.00
11536;DHT22;5824;49.336;8.652;2023-07-31T03:38:51;18.30;1.00
11536;DHT22;5824;49.336;8.652;2023-07-31T03:41:17;18.30;1.00
11536;DHT22;5824;49.336;8.652;2023-07-31T03:43:43;18.30;1.00
11536;DHT22;5824;49.336;8.652;2023-07-31T03:46:08;18.20;1.00
11536;DHT22;5824;49.336;8.652;2023-07-31T03:48:34;18.20;1.00
11536;DHT22;5824;49.336;8.652;2023-07-31T03:50:59;18.20;1.00
11536;DHT22;5824;49.336;8.652;2023-07-31T03:53:25;18.20;1.00
11536;DHT22;5824;49.336;8.652;2023-07-31T03:55:50;18.20;1.00
11536;DHT22;5824;49.336;8.652;2023-07-31T03:58:16;18.20;1.00
11536;DHT22;5824;49.336;8.652;2023-07-31T04:00:41;18.20;1.00
11536;DHT22;5824;49.336;8.652;2023-07-31T04:03:07;18.20;1.00
11536;DHT22;5824;49.336;8.652;2023-07-31T04:05:32;18.20;1.00
11536;DHT22;5824;49.336;8.652;2023-07-31T04:07:58;18.20;1.00
11536;DHT22;5824;49.336;8.652;2023-07-31T04:10:24;18.30;1.00
11536;DHT22;5824;49.336;8.652;2023-07-31T04:12:49;18.20;1.00
11536;DHT22;5824;49.336;8.652;2023-07-31T04:15:15;18.20;1.00
11536;DHT22;5824;49.336;8.652;2023-07-31T04:17:40;18.30;1.00
11536;DHT22;5824;49.336;8.652;2023-07-31T04:20:06;18.30;1.00
11536;DHT22;5824;49.336;8.652;2023-07-31T04:22:32;18.30;1.00
11536;DHT22;5824;49.336;8.652;2023-07-31T04:24:57;18.40;1.00
11536;DHT22;5824;49.336;8.652;2023-07-31T04:27:23;18.40;1.00
11536;DHT22;5824;49.336;8.652;2023-07-31T04:29:48;18.40;1.00
11536;DHT22;5824;49.336;8.652;2023-07-31T04:32:14;18.40;1.00
11536;DHT22;5824;49.336;8.652;2023-07-31T04:34:42;18.40;1.00
11536;DHT22;5824;49.336;8.652;2023-07-31T04:37:07;18.40;1.00
11536;DHT22;5824;49.336;8.652;2023-07-31T04:39:33;18.40;1.00
11536;DHT22;5824;49.336;8.652;2023-07-31T04:41:58;18.30;1.00
11536;DHT22;5824;49.336;8.652;2023-07-31T04:44:24;18.40;1.00
11536;DHT22;5824;49.336;8.652;2023-07-31T04:46:49;18.50;1.00
11536;DHT22;5824;49.336;8.652;2023-07-31T04:49:15;18.50;1.00
11536;DHT22;5824;49.336;8.652;2023-07-31T04:51:40;18.60;1.00
11536;DHT22;5824;49.336;8.652;2023-07-31T04:54:06;18.60;1.00
11536;DHT22;5824;49.336;8.652;2023-07-31T04:56:31;18.60;1.00
11536;DHT22;5824;49.336;8.652;2023-07-31T04:58:57;18.60;1.00
11536;DHT22;5824;49.336;8.652;2023-07-31T05:01:22;18.70;1.00
11536;DHT22;5824;49.336;8.652;2023-07-31T05:03:48;18.70;1.00
11536;DHT22;5824;49.336;8.652;2023-07-31T05:06:13;18.80;1.00
11536;DHT22;5824;49.336;8.652;2023-07-31T05:08:40;18.80;1.00
11536;DHT22;5824;49.336;8.652;2023-07-31T05:11:06;18.90;1.00
11536;DHT22;5824;49.336;8.652;2023-07-31T05:13:32;19.00;1.00
11536;DHT22;5824;49.336;8.652;2023-07-31T05:15:57;18.90;1.00
11536;DHT22;5824;49.336;8.652;2023-07-31T05:18:22;19.00;1.00
11536;DHT22;5824;49.336;8.652;2023-07-31T05:20:48;19.00;1.00
11536;DHT22;5824;49.336;8.652;2023-07-31T05:23:13;19.10;1.00
11536;DHT22;5824;49.336;8.652;2023-07-31T05:25:39;19.20;1.00
11536;DHT22;5824;49.336;8.652;2023-07-31T05:28:05;19.20;1.00
11536;DHT22;5824;49.336;8.652;2023-07-31T05:30:30;19.00;1.00
11536;DHT22;5824;49.336;8.652;2023-07-31T05:32:56;19.00;1.00
11536;DHT22;5824;49.336;8.652;2023-07-31T05:35:22;19.10;1.00
11536;DHT22;5824;49.336;8.652;2023-07-31T05:37:47;19.00;1.00
11536;DHT22;5824;49.336;8.652;2023-07-31T05:40:13;19.10;1.00
11536;DHT22;5824;49.336;8.652;2023-07-31T05:42:39;19.30;1.00
11536;DHT22;5824;49.336;8.652;2023-07-31T05:45:06;19.20;1.00
11536;DHT22;5824;49.336;8.652;2023-07-31T05:47:32;19.10;1.00
11536;DHT22;5824;49.336;8.652;2023-07-31T05:49:57;19.20;1.00
11536;DHT22;5824;49.336;8.652;2023-07-31T05:52:23;19.10;1.00
11536;DHT22;5824;49.336;8.652;2023-07-31T05:54:48;19.30;1.00
11536;DHT22;5824;49.336;8.652;2023-07-31T05:57:14;19.20;1.00
11536;DHT22;5824;49.336;8.652;2023-07-31T05:59:39;19.10;1.00
11536;DHT22;5824;49.336;8.652;2023-07-31T06:02:06;19.10;1.00
11536;DHT22;5824;49.336;8.652;2023-07-31T06:04:31;19.20;1.00
11536;DHT22;5824;49.336;8.652;2023-07-31T06:06:57;19.20;1.00
11536;DHT22;5824;49.336;8.652;2023-07-31T06:09:22;19.10;1.00
11536;DHT22;5824;49.336;8.652;2023-07-31T06:11:48;19.20;1.00
11536;DHT22;5824;49.336;8.652;2023-07-31T06:14:13;19.20;1.00
11536;DHT22;5824;49.336;8.652;2023-07-31T06:16:39;19.40;1.00
11536;DHT22;5824;49.336;8.652;2023-07-31T06:19:04;19.40;1.00
11536;DHT22;5824;49.336;8.652;2023-07-31T06:21:30;19.40;1.00
11536;DHT22;5824;49.336;8.652;2023-07-31T06:23:56;19.40;1.00
11536;DHT22;5824;49.336;8.652;2023-07-31T06:26:22;19.50;1.00
11536;DHT22;5824;49.336;8.652;2023-07-31T06:28:47;19.50;1.00
11536;DHT22;5824;49.336;8.652;2023-07-31T06:31:12;19.50;1.00
11536;DHT22;5824;49.336;8.652;2023-07-31T06:33:38;19.50;1.00
11536;DHT22;5824;49.336;8.652;2023-07-31T06:36:04;19.60;1.00
11536;DHT22;5824;49.336;8.652;2023-07-31T06:38:29;19.60;1.00
11536;DHT22;5824;49.336;8.652;2023-07-31T06:40:55;19.50;1.00
11536;DHT22;5824;49.336;8.652;2023-07-31T06:43:20;19.60;1.00
11536;DHT22;5824;49.336;8.652;2023-07-31T06:45:46;19.60;1.00
11536;DHT22;5824;49.336;8.652;2023-07-31T06:48:13;19.70;1.00
11536;DHT22;5824;49.336;8.652;2023-07-31T06:50:39;19.80;1.00
11536;DHT22;5824;49.336;8.652;2023-07-31T06:53:04;19.80;1.00
11536;DHT22;5824;49.336;8.652;2023-07-31T06:55:30;20.00;1.00
11536;DHT22;5824;49.336;8.652;2023-07-31T06:57:56;20.00;1.00
11536;DHT22;5824;49.336;8.652;2023-07-31T07:00:22;20.10;1.00
11536;DHT22;5824;49.336;8.652;2023-07-31T07:02:49;20.10;1.00
11536;DHT22;5824;49.336;8.652;2023-07-31T07:05:16;20.10;1.00
11536;DHT22;5824;49.336;8.652;2023-07-31T07:07:42;20.10;1.00
11536;DHT22;5824;49.336;8.652;2023-07-31T07:10:08;20.20;1.00
11536;DHT22;5824;49.336;8.652;2023-07-31T07:12:34;20.20;1.00
11536;DHT22;5824;49.336;8.652;2023-07-31T07:15:01;20.10;1.00
11536;DHT22;5824;49.336;8.652;2023-07-31T07:17:28;20.20;1.00
11536;DHT22;5824;49.336;8.652;2023-07-31T07:19:56;20.40;1.00
11536;DHT22;5824;49.336;8.652;2023-07-31T07:22:21;20.60;1.00
11536;DHT22;5824;49.336;8.652;2023-07-31T07:24:47;20.70;1.00
11536;DHT22;5824;49.336;8.652;2023-07-31T07:27:12;20.80;1.00
11536;DHT22;5824;49.336;8.652;2023-07-31T07:29:38;20.90;1.00
11536;DHT22;5824;49.336;8.652;2023-07-31T07:32:04;21.00;1.00
11536;DHT22;5824;49.336;8.652;2023-07-31T07:34:30;21.00;1.00
11536;DHT22;5824;49.336;8.652;2023-07-31T07:36:55;21.10;1.00
11536;DHT22;5824;49.336;8.652;2023-07-31T07:39:21;21.20;1.00
11536;DHT22;5824;49.336;8.652;2023-07-31T07:41:47;21.30;1.00
11536;DHT22;5824;49.336;8.652;2023-07-31T07:44:13;21.40;1.00
11536;DHT22;5824;49.336;8.652;2023-07-31T07:46:39;21.20;1.00
11536;DHT22;5824;49.336;8.652;2023-07-31T07:49:05;21.00;1.00
11536;DHT22;5824;49.336;8.652;2023-07-31T07:51:30;21.10;1.00
11536;DHT22;5824;49.336;8.652;2023-07-31T07:53:57;21.20;1.00
11536;DHT22;5824;49.336;8.652;2023-07-31T07:56:23;21.30;1.00
11536;DHT22;5824;49.336;8.652;2023-07-31T07:58:49;21.30;1.00
11536;DHT22;5824;49.336;8.652;2023-07-31T08:01:15;21.30;1.00
11536;DHT22;5824;49.336;8.652;2023-07-31T08:03:41;21.30;1.00
11536;DHT22;5824;49.336;8.652;2023-07-31T08:06:06;21.30;1.00
11536;DHT22;5824;49.336;8.652;2023-07-31T08:08:34;21.40;1.00
11536;DHT22;5824;49.336;8.652;2023-07-31T08:11:00;21.60;1.00
11536;DHT22;5824;49.336;8.652;2023-07-31T08:13:26;21.50;1.00
11536;DHT22;5824;49.336;8.652;2023-07-31T08:15:51;21.90;1.00
11536;DHT22;5824;49.336;8.652;2023-07-31T08:18:17;22.10;1.00
11536;DHT22;5824;49.336;8.652;2023-07-31T08:20:42;22.20;1.00
11536;DHT22;5824;49.336;8.652;2023-07-31T08:23:09;22.40;1.00
11536;DHT22;5824;49.336;8.652;2023-07-31T08:25:35;22.40;1.00
11536;DHT22;5824;49.336;8.652;2023-07-31T08:28:02;22.40;1.00
11536;DHT22;5824;49.336;8.652;2023-07-31T08:30:27;22.50;1.00
11536;DHT22;5824;49.336;8.652;2023-07-31T08:32:52;22.30;1.00
11536;DHT22;5824;49.336;8.652;2023-07-31T08:35:18;22.40;1.00
11536;DHT22;5824;49.336;8.652;2023-07-31T08:37:43;22.40;1.00
11536;DHT22;5824;49.336;8.652;2023-07-31T08:40:09;22.50;1.00
11536;DHT22;5824;49.336;8.652;2023-07-31T08:42:49;22.50;1.00
11536;DHT22;5824;49.336;8.652;2023-07-31T08:45:17;22.80;1.00
11536;DHT22;5824;49.336;8.652;2023-07-31T08:47:46;23.20;1.00
11536;DHT22;5824;49.336;8.652;2023-07-31T08:50:16;23.30;1.00
11536;DHT22;5824;49.336;8.652;2023-07-31T08:52:42;23.50;1.00
11536;DHT22;5824;49.336;8.652;2023-07-31T08:55:08;23.20;1.00
11536;DHT22;5824;49.336;8.652;2023-07-31T08:57:36;23.40;1.00
11536;DHT22;5824;49.336;8.652;2023-07-31T09:00:03;23.70;1.00
11536;DHT22;5824;49.336;8.652;2023-07-31T09:05:09;23.50;1.00
11536;DHT22;5824;49.336;8.652;2023-07-31T09:07:36;23.40;1.00
11536;DHT22;5824;49.336;8.652;2023-07-31T09:10:02;23.00;1.00
11536;DHT22;5824;49.336;8.652;2023-07-31T09:12:28;22.90;1.00
11536;DHT22;5824;49.336;8.652;2023-07-31T09:14:53;22.90;1.00
11536;DHT22;5824;49.336;8.652;2023-07-31T09:17:33;24.30;1.00
11536;DHT22;5824;49.336;8.652;2023-07-31T09:22:38;24.50;1.00
11536;DHT22;5824;49.336;8.652;2023-07-31T09:25:23;25.20;1.00
11536;DHT22;5824;49.336;8.652;2023-07-31T09:27:59;25.50;1.00
11536;DHT22;5824;49.336;8.652;2023-07-31T09:30:25;26.30;1.00
11536;DHT22;5824;49.336;8.652;2023-07-31T09:32:52;26.50;1.00
11536;DHT22;5824;49.336;8.652;2023-07-31T09:35:32;26.60;1.00
11536;DHT22;5824;49.336;8.652;2023-07-31T09:38:00;25.60;1.00
11536;DHT22;5824;49.336;8.652;2023-07-31T09:40:37;22.90;1.00
11536;DHT22;5824;49.336;8.652;2023-07-31T09:43:11;26.90;1.00
11536;DHT22;5824;49.336;8.652;2023-07-31T09:45:39;27.30;1.00
11536;DHT22;5824;49.336;8.652;2023-07-31T09:48:13;27.40;1.00
11536;DHT22;5824;49.336;8.652;2023-07-31T09:50:42;26.90;1.00
11536;DHT22;5824;49.336;8.652;2023-07-31T09:53:08;26.00;1.00
11536;DHT22;5824;49.336;8.652;2023-07-31T09:55:35;25.20;1.00
11536;DHT22;5824;49.336;8.652;2023-07-31T09:58:06;24.80;1.00
11536;DHT22;5824;49.336;8.652;2023-07-31T10:00:32;25.00;1.00
11536;DHT22;5824;49.336;8.652;2023-07-31T10:03:04;25.40;1.00
11536;DHT22;5824;49.336;8.652;2023-07-31T10:05:50;25.60;1.00
11536;DHT22;5824;49.336;8.652;2023-07-31T10:08:18;25.60;1.00
11536;DHT22;5824;49.336;8.652;2023-07-31T10:10:45;25.40;1.00
11536;DHT22;5824;49.336;8.652;2023-07-31T10:13:12;25.50;1.00
11536;DHT22;5824;49.336;8.652;2023-07-31T10:15:38;25.60;1.00
11536;DHT22;5824;49.336;8.652;2023-07-31T10:18:06;25.40;1.00
11536;DHT22;5824;49.336;8.652;2023-07-31T10:20:32;25.60;1.00
11536;DHT22;5824;49.336;8.652;2023-07-31T10:22:58;25.60;1.00
11536;DHT22;5824;49.336;8.652;2023-07-31T10:25:26;25.50;1.00
11536;DHT22;5824;49.336;8.652;2023-07-31T10:27:53;25.40;1.00
11536;DHT22;5824;49.336;8.652;2023-07-31T10:30:22;25.60;1.00
11536;DHT22;5824;49.336;8.652;2023-07-31T10:32:51;25.90;1.00
11536;DHT22;5824;49.336;8.652;2023-07-31T10:35:17;26.20;1.00
11536;DHT22;5824;49.336;8.652;2023-07-31T10:37:43;26.30;1.00
11536;DHT22;5824;49.336;8.652;2023-07-31T10:40:16;26.60;1.00
11536;DHT22;5824;49.336;8.652;2023-07-31T10:42:52;27.00;1.00
11536;DHT22;5824;49.336;8.652;2023-07-31T10:48:07;27.30;1.00
11536;DHT22;5824;49.336;8.652;2023-07-31T10:50:38;27.00;1.00
11536;DHT22;5824;49.336;8.652;2023-07-31T10:53:04;28.60;1.00
11536;DHT22;5824;49.336;8.652;2023-07-31T10:55:40;26.80;1.00
11536;DHT22;5824;49.336;8.652;2023-07-31T10:58:13;27.10;1.00
11536;DHT22;5824;49.336;8.652;2023-07-31T11:00:43;27.30;1.00
11536;DHT22;5824;49.336;8.652;2023-07-31T11:03:17;27.00;1.00
11536;DHT22;5824;49.336;8.652;2023-07-31T11:05:50;26.10;1.00
11536;DHT22;5824;49.336;8.652;2023-07-31T11:08:26;25.20;1.00
11536;DHT22;5824;49.336;8.652;2023-07-31T11:11:12;25.30;1.00
11536;DHT22;5824;49.336;8.652;2023-07-31T11:13:52;25.00;1.00
11536;DHT22;5824;49.336;8.652;2023-07-31T11:16:20;25.00;1.00
11536;DHT22;5824;49.336;8.652;2023-07-31T11:18:47;25.20;1.00
11536;DHT22;5824;49.336;8.652;2023-07-31T11:21:21;25.20;1.00
11536;DHT22;5824;49.336;8.652;2023-07-31T11:23:49;25.40;1.00
11536;DHT22;5824;49.336;8.652;2023-07-31T11:26:15;25.50;1.00
11536;DHT22;5824;49.336;8.652;2023-07-31T11:28:40;25.50;1.00
11536;DHT22;5824;49.336;8.652;2023-07-31T11:31:09;25.70;1.00
11536;DHT22;5824;49.336;8.652;2023-07-31T11:33:34;25.40;1.00
11536;DHT22;5824;49.336;8.652;2023-07-31T11:36:00;25.30;1.00
11536;DHT22;5824;49.336;8.652;2023-07-31T11:38:31;25.00;1.00
11536;DHT22;5824;49.336;8.652;2023-07-31T11:41:00;24.80;1.00
11536;DHT22;5824;49.336;8.652;2023-07-31T11:43:28;24.90;1.00
11536;DHT22;5824;49.336;8.652;2023-07-31T11:45:56;24.80;1.00
11536;DHT22;5824;49.336;8.652;2023-07-31T11:48:25;24.70;1.00
11536;DHT22;5824;49.336;8.652;2023-07-31T11:50:53;24.80;1.00
11536;DHT22;5824;49.336;8.652;2023-07-31T11:53:25;25.20;1.00
11536;DHT22;5824;49.336;8.652;2023-07-31T11:55:52;27.00;1.00
11536;DHT22;5824;49.336;8.652;2023-07-31T11:58:17;27.70;1.00
11536;DHT22;5824;49.336;8.652;2023-07-31T12:00:45;30.60;1.00
11536;DHT22;5824;49.336;8.652;2023-07-31T12:03:11;29.00;1.00
11536;DHT22;5824;49.336;8.652;2023-07-31T12:05:37;29.20;1.00
11536;DHT22;5824;49.336;8.652;2023-07-31T12:08:09;29.80;1.00
11536;DHT22;5824;49.336;8.652;2023-07-31T12:10:34;29.30;1.00
11536;DHT22;5824;49.336;8.652;2023-07-31T12:13:08;28.30;1.00
11536;DHT22;5824;49.336;8.652;2023-07-31T12:15:43;27.20;1.00
11536;DHT22;5824;49.336;8.652;2023-07-31T12:20:35;26.50;1.00
11536;DHT22;5824;49.336;8.652;2023-07-31T12:23:01;26.20;1.00
11536;DHT22;5824;49.336;8.652;2023-07-31T12:25:33;25.50;1.00
11536;DHT22;5824;49.336;8.652;2023-07-31T12:28:04;25.70;1.00
11536;DHT22;5824;49.336;8.652;2023-07-31T12:30:34;26.00;1.00
11536;DHT22;5824;49.336;8.652;2023-07-31T12:33:21;26.40;1.00
11536;DHT22;5824;49.336;8.652;2023-07-31T12:35:47;26.30;1.00
11536;DHT22;5824;49.336;8.652;2023-07-31T12:38:13;27.10;1.00
11536;DHT22;5824;49.336;8.652;2023-07-31T12:40:41;27.80;1.00
11536;DHT22;5824;49.336;8.652;2023-07-31T12:43:07;28.20;1.00
11536;DHT22;5824;49.336;8.652;2023-07-31T12:45:33;28.70;1.00
11536;DHT22;5824;49.336;8.652;2023-07-31T12:47:59;29.50;1.00
11536;DHT22;5824;49.336;8.652;2023-07-31T12:50:25;29.90;1.00
11536;DHT22;5824;49.336;8.652;2023-07-31T12:52:53;31.30;1.00
11536;DHT22;5824;49.336;8.652;2023-07-31T12:55:18;32.50;1.00
11536;DHT22;5824;49.336;8.652;2023-07-31T12:57:44;31.50;1.00
11536;DHT22;5824;49.336;8.652;2023-07-31T13:00:10;30.40;1.00
11536;DHT22;5824;49.336;8.652;2023-07-31T13:02:36;29.40;1.00
11536;DHT22;5824;49.336;8.652;2023-07-31T13:05:02;28.40;1.00
11536;DHT22;5824;49.336;8.652;2023-07-31T13:07:27;27.70;1.00
11536;DHT22;5824;49.336;8.652;2023-07-31T13:09:53;27.20;1.00
11536;DHT22;5824;49.336;8.652;2023-07-31T13:12:18;26.90;1.00
11536;DHT22;5824;49.336;8.652;2023-07-31T13:14:44;26.70;1.00
11536;DHT22;5824;49.336;8.652;2023-07-31T13:17:09;26.60;1.00
11536;DHT22;5824;49.336;8.652;2023-07-31T13:19:35;26.00;1.00
11536;DHT22;5824;49.336;8.652;2023-07-31T13:22:01;25.90;1.00
11536;DHT22;5824;49.336;8.652;2023-07-31T13:24:26;25.90;1.00
11536;DHT22;5824;49.336;8.652;2023-07-31T13:26:51;25.70;1.00
11536;DHT22;5824;49.336;8.652;2023-07-31T13:31:43;25.60;1.00
11536;DHT22;5824;49.336;8.652;2023-07-31T13:34:08;25.80;1.00
11536;DHT22;5824;49.336;8.652;2023-07-31T13:36:34;25.90;1.00
11536;DHT22;5824;49.336;8.652;2023-07-31T13:39:02;26.40;1.00
11536;DHT22;5824;49.336;8.652;2023-07-31T13:41:28;26.00;1.00
11536;DHT22;5824;49.336;8.652;2023-07-31T13:43:53;26.30;1.00
11536;DHT22;5824;49.336;8.652;2023-07-31T13:46:18;26.30;1.00
11536;DHT22;5824;49.336;8.652;2023-07-31T13:51:10;26.00;1.00
11536;DHT22;5824;49.336;8.652;2023-07-31T13:53:35;26.20;1.00
11536;DHT22;5824;49.336;8.652;2023-07-31T13:56:01;26.80;1.00
11536;DHT22;5824;49.336;8.652;2023-07-31T13:58:27;27.20;1.00
11536;DHT22;5824;49.336;8.652;2023-07-31T14:00:52;27.60;1.00
11536;DHT22;5824;49.336;8.652;2023-07-31T14:03:18;27.60;1.00
11536;DHT22;5824;49.336;8.652;2023-07-31T14:05:43;27.90;1.00
11536;DHT22;5824;49.336;8.652;2023-07-31T14:08:08;28.60;1.00
11536;DHT22;5824;49.336;8.652;2023-07-31T14:10:34;28.40;1.00
11536;DHT22;5824;49.336;8.652;2023-07-31T14:13:00;28.20;1.00
11536;DHT22;5824;49.336;8.652;2023-07-31T14:15:25;27.80;1.00
11536;DHT22;5824;49.336;8.652;2023-07-31T14:17:51;27.20;1.00
11536;DHT22;5824;49.336;8.652;2023-07-31T14:20:16;26.40;1.00
11536;DHT22;5824;49.336;8.652;2023-07-31T14:22:42;25.90;1.00
11536;DHT22;5824;49.336;8.652;2023-07-31T14:25:07;25.80;1.00
11536;DHT22;5824;49.336;8.652;2023-07-31T14:27:35;25.80;1.00
11536;DHT22;5824;49.336;8.652;2023-07-31T14:30:01;26.00;1.00
11536;DHT22;5824;49.336;8.652;2023-07-31T14:32:26;26.00;1.00
11536;DHT22;5824;49.336;8.652;2023-07-31T14:34:52;25.70;1.00
11536;DHT22;5824;49.336;8.652;2023-07-31T14:37:17;25.60;1.00
11536;DHT22;5824;49.336;8.652;2023-07-31T14:39:43;25.40;1.00
11536;DHT22;5824;49.336;8.652;2023-07-31T14:42:09;25.40;1.00
11536;DHT22;5824;49.336;8.652;2023-07-31T14:44:34;25.50;1.00
11536;DHT22;5824;49.336;8.652;2023-07-31T14:47:00;25.60;1.00
11536;DHT22;5824;49.336;8.652;2023-07-31T14:49:25;25.90;1.00
11536;DHT22;5824;49.336;8.652;2023-07-31T14:51:53;25.80;1.00
11536;DHT22;5824;49.336;8.652;2023-07-31T14:54:19;25.60;1.00
11536;DHT22;5824;49.336;8.652;2023-07-31T14:56:44;25.60;1.00
11536;DHT22;5824;49.336;8.652;2023-07-31T14:59:10;25.60;1.00
11536;DHT22;5824;49.336;8.652;2023-07-31T15:01:36;26.30;1.00
11536;DHT22;5824;49.336;8.652;2023-07-31T15:04:02;27.40;1.00
11536;DHT22;5824;49.336;8.652;2023-07-31T15:06:28;28.30;1.00
11536;DHT22;5824;49.336;8.652;2023-07-31T15:08:53;28.30;1.00
11536;DHT22;5824;49.336;8.652;2023-07-31T15:11:19;28.30;1.00
11536;DHT22;5824;49.336;8.652;2023-07-31T15:13:44;28.10;1.00
11536;DHT22;5824;49.336;8.652;2023-07-31T15:16:10;28.10;1.00
11536;DHT22;5824;49.336;8.652;2023-07-31T15:18:35;28.40;1.00
11536;DHT22;5824;49.336;8.652;2023-07-31T15:21:01;28.90;1.00
11536;DHT22;5824;49.336;8.652;2023-07-31T15:23:26;28.60;1.00
11536;DHT22;5824;49.336;8.652;2023-07-31T15:25:52;28.10;1.00
11536;DHT22;5824;49.336;8.652;2023-07-31T15:28:18;27.90;1.00
11536;DHT22;5824;49.336;8.652;2023-07-31T15:30:44;27.90;1.00
11536;DHT22;5824;49.336;8.652;2023-07-31T15:33:10;27.50;1.00
11536;DHT22;5824;49.336;8.652;2023-07-31T15:35:35;27.20;1.00
11536;DHT22;5824;49.336;8.652;2023-07-31T15:38:00;27.10;1.00
11536;DHT22;5824;49.336;8.652;2023-07-31T15:40:26;27.00;1.00
11536;DHT22;5824;49.336;8.652;2023-07-31T15:42:52;26.90;1.00
11536;DHT22;5824;49.336;8.652;2023-07-31T15:45:17;26.80;1.00
11536;DHT22;5824;49.336;8.652;2023-07-31T15:47:43;26.60;1.00
11536;DHT22;5824;49.336;8.652;2023-07-31T15:50:08;26.70;1.00
11536;DHT22;5824;49.336;8.652;2023-07-31T15:52:34;26.40;1.00
11536;DHT22;5824;49.336;8.652;2023-07-31T15:55:00;26.20;1.00
11536;DHT22;5824;49.336;8.652;2023-07-31T15:57:25;26.00;1.00
11536;DHT22;5824;49.336;8.652;2023-07-31T15:59:51;26.00;1.00
11536;DHT22;5824;49.336;8.652;2023-07-31T16:02:16;25.60;1.00
11536;DHT22;5824;49.336;8.652;2023-07-31T16:04:42;25.60;1.00
11536;DHT22;5824;49.336;8.652;2023-07-31T16:07:07;25.60;1.00
11536;DHT22;5824;49.336;8.652;2023-07-31T16:09:33;25.60;1.00
11536;DHT22;5824;49.336;8.652;2023-07-31T16:11:58;25.50;1.00
11536;DHT22;5824;49.336;8.652;2023-07-31T16:14:24;25.40;1.00
11536;DHT22;5824;49.336;8.652;2023-07-31T16:16:49;28.40;1.00